Time;durP1;ratioP1;P1;durP2;ratioP2;P2;SDS_P1;SDS_P2;PMS_P1;PMS_P2;Temp;Humidity;BMP_temperature;BMP_pressure;BME280_temperature;BME280_humidity;BME280_pressure;Samples;Min_cycle;Max_cycle;Signal;HPM_P1;HPM_P2
2021/07/29 00:02:17;;;;;;;12.52;7.50;;;;;;;37.83;20.83;94569.41;5054264;28;20055;-68
2021/07/29 00:04:44;;;;;;;15.77;8.07;;;;;;;38.04;20.61;94569.69;5053896;28;20359;-68
2021/07/29 00:07:11;;;;;;;16.42;7.93;;;;;;;38.29;20.09;94582.97;5053319;28;20049;-68
2021/07/29 00:09:38;;;;;;;13.80;7.85;;;;;;;38.03;20.31;94573.63;5053546;28;20064;-68
2021/07/29 00:12:05;;;;;;;14.38;7.20;;;;;;;38.10;20.08;94570.56;5054057;28;20045;-67
2021/07/29 00:14:33;;;;;;;20.80;7.88;;;;;;;37.86;20.31;94560.31;5053648;28;20052;-68
2021/07/29 00:17:01;;;;;;;15.38;8.00;;;;;;;38.18;19.89;94571.75;5052662;28;20056;-67
2021/07/29 00:19:28;;;;;;;16.48;8.18;;;;;;;37.80;20.13;94567.59;5052939;28;20053;-68
2021/07/29 00:21:55;;;;;;;17.58;7.72;;;;;;;37.67;20.99;94566.97;5053348;28;20146;-67
2021/07/29 00:24:25;;;;;;;18.95;7.53;;;;;;;38.00;20.30;94560.88;5053261;28;20435;-67
2021/07/29 00:26:53;;;;;;;15.80;7.28;;;;;;;37.86;20.25;94557.59;5052936;28;20443;-67
2021/07/29 00:29:20;;;;;;;17.65;7.25;;;;;;;37.83;19.92;94557.75;5051899;28;20045;-67
2021/07/29 00:31:47;;;;;;;17.40;7.78;;;;;;;37.88;19.79;94544.25;5053171;28;20060;-68
2021/07/29 00:34:14;;;;;;;12.40;6.95;;;;;;;38.38;19.07;94544.69;5051383;28;20044;-67
2021/07/29 00:36:41;;;;;;;14.20;6.93;;;;;;;38.42;18.76;94541.78;5033188;28;20052;-68
2021/07/29 00:39:08;;;;;;;14.13;6.15;;;;;;;38.23;18.62;94535.66;5054576;28;20518;-68
2021/07/29 00:41:35;;;;;;;15.80;7.32;;;;;;;37.93;19.39;94537.41;5056802;28;20049;-67
2021/07/29 00:44:04;;;;;;;12.70;7.03;;;;;;;38.33;18.52;94545.34;5056620;28;20048;-67
2021/07/29 00:46:32;;;;;;;12.45;7.00;;;;;;;38.02;19.48;94531.19;5056382;28;20775;-67
2021/07/29 00:49:00;;;;;;;15.45;7.15;;;;;;;38.15;19.81;94523.53;5057053;28;20358;-68
2021/07/29 00:51:28;;;;;;;14.95;6.32;;;;;;;38.16;18.45;94522.31;5056760;28;20048;-68
2021/07/29 00:53:57;;;;;;;12.48;6.07;;;;;;;38.21;18.16;94519.75;5057079;28;20048;-68
2021/07/29 00:56:24;;;;;;;13.70;6.60;;;;;;;38.21;18.43;94518.97;5057151;28;20045;-68
2021/07/29 00:58:51;;;;;;;16.02;6.00;;;;;;;38.18;18.71;94517.19;5056917;28;20049;-67
2021/07/29 01:01:18;;;;;;;11.65;6.57;;;;;;;38.38;19.20;94520.13;5056953;28;20048;-68
2021/07/29 01:03:45;;;;;;;14.23;7.10;;;;;;;38.27;19.27;94519.13;5056942;28;20755;-66
2021/07/29 01:06:12;;;;;;;15.13;6.95;;;;;;;38.40;19.26;94517.69;5056741;28;20493;-68
2021/07/29 01:09:02;;;;;;;13.43;7.35;;;;;;;38.36;18.99;94532.72;5056878;28;20486;-69
2021/07/29 01:11:30;;;;;;;14.37;6.73;;;;;;;38.03;19.84;94529.97;5056285;28;20045;-69
2021/07/29 01:13:57;;;;;;;13.93;7.07;;;;;;;38.25;19.58;94530.50;5056797;28;20076;-71
2021/07/29 01:16:24;;;;;;;14.82;7.40;;;;;;;38.01;19.69;94521.47;5054438;28;20049;-70
2021/07/29 01:18:51;;;;;;;15.63;7.55;;;;;;;37.79;20.08;94503.34;5056505;28;20355;-67
2021/07/29 01:21:18;;;;;;;15.43;7.47;;;;;;;37.75;19.74;94510.19;5056391;28;20083;-69
2021/07/29 01:23:45;;;;;;;14.30;6.43;;;;;;;37.92;19.57;94505.88;5055911;28;20052;-67
2021/07/29 01:26:12;;;;;;;16.42;7.65;;;;;;;37.84;20.07;94501.97;5056383;28;20053;-68
2021/07/29 01:28:45;;;;;;;12.80;6.93;;;;;;;37.91;19.70;94499.66;5055769;28;20048;-68
2021/07/29 01:31:12;;;;;;;15.05;6.53;;;;;;;37.75;19.38;94491.84;5055122;28;20055;-67
2021/07/29 01:33:40;;;;;;;16.05;6.85;;;;;;;38.21;18.56;94495.19;5054510;28;20083;-68
2021/07/29 01:36:07;;;;;;;13.23;6.38;;;;;;;38.17;17.93;94499.28;5055359;28;20047;-68
2021/07/29 01:38:34;;;;;;;12.20;6.40;;;;;;;38.16;17.90;94503.22;5056294;28;20049;-68
2021/07/29 01:41:02;;;;;;;14.02;5.78;;;;;;;38.10;17.75;94496.88;5056263;28;20363;-68
2021/07/29 01:43:30;;;;;;;15.25;6.63;;;;;;;38.28;17.70;94502.28;5055755;28;20071;-68
2021/07/29 01:45:58;;;;;;;14.52;5.90;;;;;;;38.04;18.49;94490.53;5048266;28;20052;-67
2021/07/29 01:48:28;;;;;;;20.00;6.50;;;;;;;38.08;18.31;94491.13;5056047;28;20490;-68
2021/07/29 01:50:55;;;;;;;13.48;6.35;;;;;;;37.91;19.03;94491.50;5055456;28;20049;-68
2021/07/29 01:53:22;;;;;;;12.70;5.80;;;;;;;38.46;18.26;94495.97;5056117;28;20060;-68
2021/07/29 01:55:50;;;;;;;13.73;5.90;;;;;;;38.21;18.64;94497.91;5055873;28;20041;-68
2021/07/29 01:58:18;;;;;;;11.68;5.72;;;;;;;38.15;18.73;94498.97;5055869;28;20044;-68
2021/07/29 02:00:50;;;;;;;17.33;6.63;;;;;;;37.75;20.07;94507.47;5055705;28;20390;-68
2021/07/29 02:03:17;;;;;;;13.98;7.10;;;;;;;37.71;19.74;94512.28;5055631;28;20052;-68
2021/07/29 02:05:44;;;;;;;13.10;6.72;;;;;;;37.93;19.89;94508.16;5055550;28;20735;-68
2021/07/29 02:08:11;;;;;;;13.25;7.07;;;;;;;37.81;20.13;94506.38;5055695;28;20052;-66
2021/07/29 02:10:38;;;;;;;17.20;7.75;;;;;;;37.93;20.60;94508.16;5055730;28;20057;-67
2021/07/29 02:13:05;;;;;;;18.00;7.80;;;;;;;37.82;20.53;94516.06;5055645;28;20056;-67
2021/07/29 02:15:32;;;;;;;16.98;7.30;;;;;;;37.60;20.95;94501.84;5055247;28;20052;-70
2021/07/29 02:18:00;;;;;;;16.00;7.55;;;;;;;37.74;20.58;94497.78;5055293;28;20041;-69
2021/07/29 02:20:29;;;;;;;13.23;6.88;;;;;;;37.83;21.20;94498.50;5055361;28;20057;-68
2021/07/29 02:22:56;;;;;;;12.10;6.65;;;;;;;37.74;21.08;94495.03;5055461;28;20379;-69
2021/07/29 02:25:24;;;;;;;14.52;8.20;;;;;;;37.59;21.58;94492.16;5055348;28;20052;-64
2021/07/29 02:27:51;;;;;;;12.90;6.68;;;;;;;37.64;21.44;94491.53;5054967;28;20080;-69
2021/07/29 02:30:18;;;;;;;12.60;6.85;;;;;;;37.63;20.67;94490.03;5055193;28;20049;-66
2021/07/29 02:32:45;;;;;;;12.63;7.30;;;;;;;37.65;21.07;94493.06;5055524;28;20045;-70
2021/07/29 02:35:12;;;;;;;13.70;6.63;;;;;;;37.79;21.08;94497.16;5054884;28;20060;-55
2021/07/29 02:37:39;;;;;;;14.00;7.25;;;;;;;37.67;20.93;94490.63;5054421;28;20060;-69
2021/07/29 02:40:07;;;;;;;15.07;7.18;;;;;;;37.65;20.53;94485.63;5054847;28;20049;-69
2021/07/29 02:42:34;;;;;;;15.38;7.05;;;;;;;37.87;20.23;94479.22;5055132;28;20390;-68
2021/07/29 02:45:01;;;;;;;13.13;5.93;;;;;;;37.64;20.30;94480.63;5054987;28;20044;-66
2021/07/29 02:47:28;;;;;;;12.38;6.45;;;;;;;37.76;19.32;94482.47;5053362;28;20474;-64
2021/07/29 02:49:55;;;;;;;13.32;6.65;;;;;;;37.89;19.45;94480.28;5054802;28;20057;-61
2021/07/29 02:52:22;;;;;;;11.45;6.53;;;;;;;37.70;19.26;94484.25;5054833;28;20040;-67
2021/07/29 02:54:50;;;;;;;9.60;6.13;;;;;;;37.62;20.06;94483.06;5054941;28;20052;-64
2021/07/29 02:57:17;;;;;;;15.00;6.82;;;;;;;37.20;20.34;94482.94;5055133;28;20048;-65
2021/07/29 02:59:45;;;;;;;12.57;6.80;;;;;;;37.35;20.02;94481.91;5040512;28;20806;-70
2021/07/29 03:02:12;;;;;;;12.02;6.07;;;;;;;37.28;19.91;94482.22;5054544;28;20044;-61
2021/07/29 03:04:39;;;;;;;13.15;6.50;;;;;;;37.32;20.08;94482.81;5054773;28;20049;-68
2021/07/29 03:07:06;;;;;;;14.38;6.40;;;;;;;37.75;19.30;94480.19;5054608;28;20049;-64
2021/07/29 03:09:33;;;;;;;9.63;5.95;;;;;;;37.29;20.18;94478.28;5053919;28;20048;-68
2021/07/29 03:12:00;;;;;;;15.88;6.80;;;;;;;37.46;20.13;94475.22;5054518;28;20390;-66
2021/07/29 03:14:28;;;;;;;13.60;6.38;;;;;;;37.27;20.33;94485.41;5054443;28;20045;-67
2021/07/29 03:16:56;;;;;;;15.30;6.45;;;;;;;37.28;20.62;94493.13;5054095;28;20052;-65
2021/07/29 03:19:23;;;;;;;14.75;5.97;;;;;;;37.20;20.76;94497.31;5053954;28;20063;-67
2021/07/29 03:21:50;;;;;;;13.02;6.32;;;;;;;37.63;20.02;94495.47;5054191;28;20447;-67
2021/07/29 03:24:17;;;;;;;13.82;7.03;;;;;;;37.59;20.29;94503.81;5053333;28;20048;-67
2021/07/29 03:26:44;;;;;;;16.48;6.80;;;;;;;37.00;21.17;94505.22;5054368;28;20055;-67
2021/07/29 03:29:11;;;;;;;15.88;7.25;;;;;;;37.35;20.70;94503.72;5054125;28;20049;-68
2021/07/29 03:31:38;;;;;;;13.07;6.93;;;;;;;37.06;21.22;94511.56;5054077;28;20083;-66
2021/07/29 03:34:05;;;;;;;15.95;7.30;;;;;;;37.41;20.82;94505.81;5054212;28;20048;-67
2021/07/29 03:36:32;;;;;;;16.13;7.55;;;;;;;37.17;21.63;94520.03;5054429;28;20048;-69
2021/07/29 03:38:59;;;;;;;12.10;7.28;;;;;;;36.98;21.54;94519.28;5054188;28;20057;-66
2021/07/29 03:41:27;;;;;;;16.80;6.93;;;;;;;37.12;21.21;94511.72;5051872;28;20056;-70
2021/07/29 03:43:54;;;;;;;10.93;6.65;;;;;;;37.11;21.78;94513.69;5052929;28;20056;-70
2021/07/29 03:46:21;;;;;;;12.98;6.50;;;;;;;37.31;21.52;94519.47;5053626;28;20052;-70
2021/07/29 03:48:48;;;;;;;15.13;7.25;;;;;;;36.96;21.37;94515.50;5054321;28;20067;-61
2021/07/29 03:51:15;;;;;;;20.88;7.28;;;;;;;36.38;22.35;94519.75;5052948;28;20045;-61
2021/07/29 03:53:42;;;;;;;12.43;6.80;;;;;;;36.23;22.38;94515.28;5050793;28;20049;-69
2021/07/29 03:56:09;;;;;;;14.48;6.93;;;;;;;36.14;22.59;94516.75;5053782;28;20048;-75
2021/07/29 03:58:36;;;;;;;15.88;7.05;;;;;;;36.02;22.92;94517.63;5053664;28;20052;-60
2021/07/29 04:01:07;;;;;;;16.88;7.70;;;;;;;36.31;22.43;94516.56;5053686;28;20506;-51
2021/07/29 04:03:34;;;;;;;13.00;6.93;;;;;;;36.30;22.91;94518.50;5052895;28;20052;-45
2021/07/29 04:06:01;;;;;;;18.48;8.10;;;;;;;36.14;23.16;94518.72;5054091;28;20037;-51
2021/07/29 04:08:28;;;;;;;18.17;7.30;;;;;;;36.14;23.04;94524.91;5053562;28;20064;-64
2021/07/29 04:10:58;;;;;;;13.45;7.30;;;;;;;36.24;23.24;94524.97;5051810;28;20045;-57
2021/07/29 04:13:26;;;;;;;17.60;7.27;;;;;;;36.21;22.92;94517.72;5055762;28;20367;-61
2021/07/29 04:16:00;;;;;;;14.15;7.63;;;;;;;36.29;23.37;94524.38;5057249;28;20045;-51
2021/07/29 04:18:28;;;;;;;12.88;7.90;;;;;;;36.33;23.48;94520.34;5045554;28;20052;-67
2021/07/29 04:20:56;;;;;;;19.85;7.65;;;;;;;36.38;23.08;94521.72;5057320;28;20056;-65
2021/07/29 04:23:23;;;;;;;15.90;7.63;;;;;;;36.58;22.79;94518.59;5057244;28;20439;-64
2021/07/29 04:25:50;;;;;;;12.95;6.85;;;;;;;36.58;23.27;94513.91;5057715;28;20045;-64
2021/07/29 04:28:17;;;;;;;16.00;7.45;;;;;;;36.46;23.69;94522.97;5057327;28;20049;-67
2021/07/29 04:30:44;;;;;;;14.95;7.30;;;;;;;36.70;23.13;94518.47;5057435;28;20056;-64
2021/07/29 04:33:11;;;;;;;13.50;6.63;;;;;;;36.51;24.12;94519.63;5057422;28;20482;-58
2021/07/29 04:35:39;;;;;;;16.30;7.28;;;;;;;37.29;22.70;94516.44;5057390;28;20049;-68
2021/07/29 04:38:06;;;;;;;13.05;7.30;;;;;;;37.47;22.50;94517.63;5056702;28;20049;-66
2021/07/29 04:40:33;;;;;;;17.00;7.28;;;;;;;36.93;23.44;94511.69;5057525;28;20049;-52
2021/07/29 04:43:00;;;;;;;18.40;8.20;;;;;;;37.05;22.86;94507.34;5057279;28;20045;-61
2021/07/29 04:45:27;;;;;;;15.98;7.60;;;;;;;36.89;22.45;94510.34;5057218;28;20052;-63
2021/07/29 04:47:55;;;;;;;15.52;7.85;;;;;;;37.05;23.17;94507.34;5046009;28;20041;-63
2021/07/29 04:50:22;;;;;;;17.63;7.10;;;;;;;36.96;23.84;94507.34;5056977;28;20045;-70
2021/07/29 04:52:50;;;;;;;12.88;7.10;;;;;;;37.37;22.48;94514.16;5057065;28;20048;-74
2021/07/29 04:55:17;;;;;;;21.77;7.55;;;;;;;37.16;22.37;94513.06;5057309;28;20056;-71
2021/07/29 04:57:44;;;;;;;15.90;6.95;;;;;;;36.87;23.25;94510.78;5057160;28;20092;-71
2021/07/29 05:00:12;;;;;;;17.20;7.60;;;;;;;37.13;22.83;94508.53;5056549;28;20049;-71
2021/07/29 05:02:39;;;;;;;16.50;7.55;;;;;;;37.08;22.76;94511.88;5057273;28;20055;-74
2021/07/29 05:05:07;;;;;;;14.38;7.47;;;;;;;37.42;21.71;94507.31;5057028;28;20355;-73
2021/07/29 05:07:34;;;;;;;19.33;7.75;;;;;;;37.49;22.70;94512.50;5056898;28;20044;-73
2021/07/29 05:10:01;;;;;;;16.45;7.05;;;;;;;37.55;22.48;94521.56;5056789;28;20045;-73
2021/07/29 05:12:28;;;;;;;15.90;7.22;;;;;;;37.65;21.69;94523.81;5056464;28;20045;-73
2021/07/29 05:14:56;;;;;;;23.25;7.75;;;;;;;37.75;21.21;94519.13;5056962;28;20044;-72
2021/07/29 05:17:24;;;;;;;15.85;7.82;;;;;;;37.74;21.85;94528.53;5056199;28;20363;-73
2021/07/29 05:19:51;;;;;;;16.45;7.65;;;;;;;38.01;21.60;94524.22;5056597;28;20057;-74
2021/07/29 05:22:18;;;;;;;19.20;8.30;;;;;;;37.68;21.25;94527.59;5054548;28;20053;-74
2021/07/29 05:24:45;;;;;;;15.65;7.95;;;;;;;37.52;21.12;94522.47;5057741;28;20449;-73
2021/07/29 05:27:12;;;;;;;16.95;7.75;;;;;;;37.71;20.82;94529.41;5056745;28;20048;-73
2021/07/29 05:29:39;;;;;;;18.20;8.27;;;;;;;38.13;19.59;94534.16;5056008;28;20053;-74
2021/07/29 05:32:07;;;;;;;20.10;7.95;;;;;;;37.93;20.97;94540.88;5056155;28;20047;-73
2021/07/29 05:34:35;;;;;;;15.23;8.00;;;;;;;38.08;20.98;94537.53;5056462;28;20083;-73
2021/07/29 05:37:03;;;;;;;19.63;8.27;;;;;;;38.32;20.68;94538.38;5051174;28;20037;-73
2021/07/29 05:39:33;;;;;;;17.13;8.40;;;;;;;38.63;20.16;94550.97;5048421;28;20056;-73
2021/07/29 05:42:01;;;;;;;15.38;8.43;;;;;;;38.45;20.50;94541.63;5056094;28;20048;-73
2021/07/29 05:44:28;;;;;;;18.08;8.00;;;;;;;39.03;19.53;94551.31;5056250;28;20053;-73
2021/07/29 05:46:56;;;;;;;15.88;7.97;;;;;;;39.13;19.93;94550.06;5055774;28;20041;-73
2021/07/29 05:49:23;;;;;;;16.67;8.45;;;;;;;39.10;19.86;94551.00;5052898;28;20060;-73
2021/07/29 05:51:50;;;;;;;18.63;9.20;;;;;;;39.20;19.97;94548.97;5048440;28;20064;-73
2021/07/29 05:54:17;;;;;;;13.85;8.10;;;;;;;39.70;19.71;94552.66;5055989;28;20079;-74
2021/07/29 05:56:45;;;;;;;18.92;8.63;;;;;;;40.01;19.37;94554.19;5056523;28;20044;-74
2021/07/29 05:59:12;;;;;;;17.58;8.90;;;;;;;40.14;19.25;94551.91;5047706;28;20049;-74
2021/07/29 06:01:40;;;;;;;16.90;8.93;;;;;;;40.32;19.32;94565.38;5046445;28;20052;-74
2021/07/29 06:04:07;;;;;;;16.67;9.32;;;;;;;40.44;18.83;94562.84;5054708;28;20049;-74
2021/07/29 06:06:35;;;;;;;19.42;9.52;;;;;;;39.39;19.97;94560.50;5055821;28;20337;-74
2021/07/29 06:09:02;;;;;;;19.70;10.23;;;;;;;39.38;20.00;94569.94;5055165;28;20451;-74
2021/07/29 06:11:30;;;;;;;17.42;10.27;;;;;;;39.40;19.82;94572.94;5055333;28;20041;-74
2021/07/29 06:13:57;;;;;;;19.90;10.50;;;;;;;39.34;20.28;94569.38;5055110;28;20052;-74
2021/07/29 06:16:24;;;;;;;18.17;10.27;;;;;;;39.52;19.71;94569.22;5055113;28;20337;-74
2021/07/29 06:19:39;;;;;;;23.05;9.20;;;;;;;39.64;19.75;94570.94;5055595;28;20493;-74
2021/07/29 06:21:38;;;;;;;21.38;8.85;;;;;;;39.78;19.48;94566.69;5050283;28;20060;-74
2021/07/29 06:24:05;;;;;;;19.85;9.00;;;;;;;39.62;19.85;94573.41;5055560;28;20056;-73
2021/07/29 06:26:33;;;;;;;16.92;9.45;;;;;;;39.84;19.98;94569.56;5055591;28;20041;-73
2021/07/29 06:29:00;;;;;;;18.23;9.20;;;;;;;40.05;19.62;94565.69;5055156;28;20053;-74
2021/07/29 06:31:27;;;;;;;16.52;8.30;;;;;;;39.95;19.67;94569.75;5055013;28;20491;-73
2021/07/29 06:33:54;;;;;;;19.08;8.68;;;;;;;40.07;19.27;94561.25;5055183;28;20049;-74
2021/07/29 06:36:21;;;;;;;17.35;8.50;;;;;;;40.28;18.69;94561.31;5054813;28;20047;-74
2021/07/29 06:38:48;;;;;;;17.42;8.70;;;;;;;40.47;18.59;94556.41;5054349;28;20439;-72
2021/07/29 06:41:15;;;;;;;18.63;8.73;;;;;;;40.91;18.32;94557.06;5041411;28;20045;-74
2021/07/29 06:43:43;;;;;;;16.17;7.38;;;;;;;40.59;18.66;94544.38;5055171;28;20045;-74
2021/07/29 06:46:10;;;;;;;14.85;8.00;;;;;;;40.91;18.37;94540.63;5054710;28;20278;-74
2021/07/29 06:48:37;;;;;;;17.65;8.77;;;;;;;41.32;17.22;94551.56;5043402;28;20060;-74
2021/07/29 06:51:06;;;;;;;16.63;8.15;;;;;;;41.77;17.04;94552.06;5050658;28;20045;-71
2021/07/29 06:53:37;;;;;;;16.45;7.97;;;;;;;41.72;17.59;94544.53;5034628;28;20052;-54
2021/07/29 06:56:05;;;;;;;17.17;8.77;;;;;;;41.89;17.00;94537.19;5034778;28;20502;-55
2021/07/29 06:58:32;;;;;;;17.98;8.68;;;;;;;41.92;16.96;94530.75;5036386;28;20057;-57
2021/07/29 07:01:04;;;;;;;16.38;8.80;;;;;;;41.83;16.69;94528.16;5054539;28;20053;-52
2021/07/29 07:03:32;;;;;;;14.63;8.10;;;;;;;42.02;16.75;94529.31;5054551;28;20052;-53
2021/07/29 07:06:04;;;;;;;17.58;8.05;;;;;;;42.05;16.24;94522.88;5054528;28;20049;-59
2021/07/29 07:08:31;;;;;;;20.33;8.63;;;;;;;42.09;16.32;94525.41;5052352;28;20045;-57
2021/07/29 07:10:58;;;;;;;18.40;8.93;;;;;;;42.26;16.16;94528.28;5054264;28;20083;-55
2021/07/29 07:13:26;;;;;;;14.13;8.02;;;;;;;42.16;16.12;94520.25;5053879;28;20048;-53
2021/07/29 07:15:53;;;;;;;20.35;8.20;;;;;;;42.41;15.57;94523.38;5054000;28;20055;-56
2021/07/29 07:18:20;;;;;;;18.27;9.20;;;;;;;42.48;15.61;94536.72;5054616;28;20479;-56
2021/07/29 07:20:47;;;;;;;22.48;8.23;;;;;;;42.65;15.63;94532.03;5053849;28;20120;-50
2021/07/29 07:23:15;;;;;;;17.08;8.57;;;;;;;42.94;15.29;94532.97;5054336;28;20382;-54
2021/07/29 07:25:42;;;;;;;17.83;8.48;;;;;;;42.99;15.59;94535.00;5053800;28;20055;-55
2021/07/29 07:28:09;;;;;;;18.45;9.02;;;;;;;42.82;15.25;94536.88;5054189;28;20045;-54
2021/07/29 07:30:39;;;;;;;16.10;8.85;;;;;;;43.02;15.69;94536.75;5054149;28;20041;-51
2021/07/29 07:33:06;;;;;;;;;;;;;;;43.09;15.24;94541.78;5054526;28;20079;-55
2021/07/29 07:35:33;;;;;;;22.58;9.55;;;;;;;43.07;15.36;94547.03;5054230;28;19913;-54
2021/07/29 07:38:00;;;;;;;21.40;8.77;;;;;;;43.09;15.34;94544.53;5054292;28;20053;-53
2021/07/29 07:40:27;;;;;;;21.02;9.15;;;;;;;43.24;15.14;94536.84;5048920;28;20044;-51
2021/07/29 07:42:56;;;;;;;16.52;8.75;;;;;;;43.39;15.75;94540.16;5053350;28;20053;-56
2021/07/29 07:45:23;;;;;;;25.40;9.30;;;;;;;43.68;15.06;94538.22;5054425;28;20048;-54
2021/07/29 07:47:50;;;;;;;18.92;8.93;;;;;;;43.21;15.20;94535.09;5054658;28;20052;-52
2021/07/29 07:50:17;;;;;;;16.55;8.88;;;;;;;43.53;14.99;94537.69;5058289;28;20068;-52
2021/07/29 07:52:44;;;;;;;20.27;9.40;;;;;;;43.55;15.31;94535.19;5058173;28;20462;-58
2021/07/29 07:55:11;;;;;;;17.52;9.15;;;;;;;43.72;15.14;94530.47;5058516;28;20057;-52
2021/07/29 07:57:38;;;;;;;19.38;9.93;;;;;;;43.38;15.03;94526.91;5058325;28;20037;-52
2021/07/29 08:00:06;;;;;;;19.85;9.18;;;;;;;43.34;15.54;94531.88;5057697;28;20048;-52
2021/07/29 08:02:34;;;;;;;21.65;9.15;;;;;;;43.57;14.65;94535.44;5057792;28;20049;-52
2021/07/29 08:05:01;;;;;;;20.70;9.10;;;;;;;43.84;14.49;94528.50;5058151;28;20048;-51
2021/07/29 08:07:28;;;;;;;16.67;9.15;;;;;;;43.76;14.04;94527.50;5051160;28;20056;-53
2021/07/29 08:09:56;;;;;;;24.77;9.98;;;;;;;43.57;14.48;94532.69;5048840;28;20045;-49
2021/07/29 08:12:23;;;;;;;20.05;9.02;;;;;;;43.54;14.56;94528.19;5056913;28;20048;-50
2021/07/29 08:14:50;;;;;;;16.92;8.88;;;;;;;43.65;14.02;94523.44;5057810;28;20048;-50
2021/07/29 08:17:17;;;;;;;17.80;8.93;;;;;;;43.80;14.40;94526.00;5057427;28;20041;-51
2021/07/29 08:19:44;;;;;;;21.65;8.40;;;;;;;43.65;13.97;94514.44;5057393;28;20368;-51
2021/07/29 08:22:12;;;;;;;19.70;8.75;;;;;;;43.92;14.46;94519.22;5056719;28;20052;-52
2021/07/29 08:24:39;;;;;;;18.70;8.82;;;;;;;44.27;14.09;94526.28;5057808;28;20052;-53
2021/07/29 08:27:06;;;;;;;24.20;9.23;;;;;;;44.07;14.09;94524.53;5057757;28;20366;-53
2021/07/29 08:29:33;;;;;;;17.08;8.13;;;;;;;44.09;14.08;94516.50;5056728;28;20078;-56
2021/07/29 08:32:00;;;;;;;15.90;8.60;;;;;;;44.20;14.26;94510.25;5056872;28;20059;-54
2021/07/29 08:34:28;;;;;;;19.38;8.95;;;;;;;44.35;13.88;94516.25;5055527;28;20049;-52
2021/07/29 08:36:55;;;;;;;18.70;8.80;;;;;;;44.39;14.29;94513.97;5037569;28;20052;-52
2021/07/29 08:39:22;;;;;;;22.45;9.35;;;;;;;44.63;13.78;94507.19;5042958;28;20036;-52
2021/07/29 08:41:51;;;;;;;23.60;8.43;;;;;;;44.76;13.72;94504.63;5056987;28;20048;-49
2021/07/29 08:44:19;;;;;;;;;;;;;;;44.81;13.74;94512.16;5056804;28;20045;-50
2021/07/29 08:46:46;;;;;;;16.08;8.55;;;;;;;44.62;13.81;94506.44;5056801;28;19924;-50
2021/07/29 08:49:15;;;;;;;25.75;8.60;;;;;;;45.03;13.74;94503.06;5056257;28;20053;-53
2021/07/29 08:51:42;;;;;;;16.02;8.80;;;;;;;44.99;13.68;94502.56;5055688;28;20048;-50
2021/07/29 08:54:12;;;;;;;16.35;8.27;;;;;;;45.29;14.01;94505.47;5055921;28;20367;-50
2021/07/29 08:56:40;;;;;;;17.27;8.25;;;;;;;45.02;13.50;94499.53;5056221;28;20493;-54
2021/07/29 08:59:07;;;;;;;18.63;7.80;;;;;;;44.91;13.59;94499.59;5056337;28;20072;-54
2021/07/29 09:01:45;;;;;;;17.27;8.43;;;;;;;44.95;13.38;94500.06;5056466;28;20044;-52
2021/07/29 09:04:15;;;;;;;23.70;8.40;;;;;;;44.58;13.44;94492.91;5056815;28;20448;-53
2021/07/29 09:06:57;;;;;;;20.30;8.18;;;;;;;44.79;13.22;94503.63;5055454;28;20045;-56
2021/07/29 09:09:45;;;;;;;21.95;7.72;;;;;;;44.98;13.13;94501.81;5055665;28;20052;-52
2021/07/29 09:12:25;;;;;;;16.70;7.57;;;;;;;45.10;13.11;94486.72;5056357;28;20045;-51
2021/07/29 09:14:53;;;;;;;18.50;7.93;;;;;;;45.45;12.84;94485.28;5045546;28;20091;-53
2021/07/29 09:17:22;;;;;;;16.95;8.05;;;;;;;45.41;12.57;94488.34;5055776;28;20402;-50
2021/07/29 09:19:51;;;;;;;18.10;8.50;;;;;;;45.26;12.69;94487.16;5056502;28;20049;-56
2021/07/29 09:22:26;;;;;;;16.55;8.05;;;;;;;45.13;13.15;94474.69;5056040;28;20435;-52
2021/07/29 09:25:14;;;;;;;16.17;7.82;;;;;;;45.33;12.46;94472.84;5055704;28;20363;-57
2021/07/29 09:27:45;;;;;;;16.20;7.82;;;;;;;45.44;12.69;94472.75;5056152;28;20041;-50
2021/07/29 09:30:18;;;;;;;18.67;8.20;;;;;;;45.43;13.46;94472.00;5055978;28;20048;-52
2021/07/29 09:32:56;;;;;;;15.43;8.50;;;;;;;45.35;13.36;94470.31;5055482;28;20052;-71
2021/07/29 09:35:51;;;;;;;19.38;8.18;;;;;;;45.08;13.96;94474.72;5054826;28;20045;-58
2021/07/29 09:38:32;;;;;;;20.60;8.50;;;;;;;45.07;13.65;94471.19;5055927;28;20044;-69
2021/07/29 09:41:00;;;;;;;20.48;7.35;;;;;;;44.94;13.06;94476.53;5055314;28;20049;-61
2021/07/29 09:43:34;;;;;;;18.95;6.82;;;;;;;45.28;12.08;94473.59;5055959;28;20041;-66
2021/07/29 09:46:03;;;;;;;17.90;6.70;;;;;;;44.95;12.78;94472.50;5055146;28;20080;-57
2021/07/29 09:48:30;;;;;;;13.95;6.57;;;;;;;44.95;13.12;94471.75;5055790;28;20053;-55
2021/07/29 09:50:59;;;;;;;16.73;6.95;;;;;;;44.86;13.02;94473.56;5054856;28;20053;-70
2021/07/29 09:53:34;;;;;;;17.02;6.82;;;;;;;45.47;12.80;94464.19;5055073;28;20052;-70
2021/07/29 09:56:12;;;;;;;17.70;7.53;;;;;;;45.20;13.32;94463.09;5042161;28;20057;-63
2021/07/29 09:58:41;;;;;;;12.43;6.55;;;;;;;45.20;12.73;94465.84;5056062;28;20367;-70
2021/07/29 10:01:10;;;;;;;16.98;7.32;;;;;;;45.39;12.73;94468.03;5055804;28;20045;-58
2021/07/29 10:03:43;;;;;;;11.38;6.40;;;;;;;45.33;12.75;94467.31;5046237;28;20056;-70
2021/07/29 10:06:21;;;;;;;12.20;6.78;;;;;;;45.44;12.39;94467.25;5041253;28;20067;-67
2021/07/29 10:09:00;;;;;;;13.55;6.80;;;;;;;45.33;12.27;94468.06;5054300;28;20049;-63
2021/07/29 10:11:32;;;;;;;15.48;7.20;;;;;;;45.43;12.47;94465.75;5053422;28;20056;-63
2021/07/29 10:13:59;;;;;;;14.85;7.47;;;;;;;45.59;11.90;94467.66;5054660;28;20052;-71
2021/07/29 10:16:49;;;;;;;16.63;7.93;;;;;;;45.64;11.96;94453.06;5054049;28;20045;-71
2021/07/29 10:19:17;;;;;;;17.13;7.20;;;;;;;45.58;11.79;94455.09;5055655;28;20059;-71
2021/07/29 10:21:44;;;;;;;15.93;7.03;;;;;;;45.47;10.96;94460.69;5053475;28;20049;-71
2021/07/29 10:24:13;;;;;;;12.32;6.10;;;;;;;45.48;10.49;94454.66;5055135;28;20103;-71
2021/07/29 10:26:59;;;;;;;16.17;7.13;;;;;;;45.26;10.24;94452.03;5054914;28;20079;-71
2021/07/29 10:29:29;;;;;;;16.88;6.55;;;;;;;45.12;10.92;94448.34;5055170;28;20045;-65
2021/07/29 10:32:12;;;;;;;18.23;6.53;;;;;;;45.13;10.80;94449.84;5054967;28;20056;-65
2021/07/29 10:34:39;;;;;;;19.02;6.68;;;;;;;45.05;11.33;94448.91;5055470;28;20053;-67
2021/07/29 10:37:07;;;;;;;18.10;6.53;;;;;;;45.16;11.25;94448.81;5054876;28;20056;-61
2021/07/29 10:40:00;;;;;;;17.05;6.03;;;;;;;45.30;10.63;94441.50;5054221;28;20439;-64
2021/07/29 10:42:28;;;;;;;15.23;6.05;;;;;;;45.50;10.58;94437.59;5054805;28;20055;-71
2021/07/29 10:44:56;;;;;;;19.48;6.13;;;;;;;45.40;10.70;94439.94;5055508;28;20351;-71
2021/07/29 10:47:40;;;;;;;16.50;6.38;;;;;;;45.14;11.44;94437.56;5053832;28;20053;-71
2021/07/29 10:50:10;;;;;;;14.18;6.63;;;;;;;44.75;12.00;94434.97;5054074;28;20057;-71
2021/07/29 10:52:38;;;;;;;14.93;6.25;;;;;;;45.05;11.44;94426.84;5037031;28;20041;-72
2021/07/29 10:55:08;;;;;;;16.38;5.65;;;;;;;45.07;11.37;94426.31;5055048;28;20049;-71
2021/07/29 10:57:36;;;;;;;13.05;5.85;;;;;;;44.89;11.88;94430.44;5054447;28;20045;-71
2021/07/29 11:00:03;;;;;;;13.30;6.10;;;;;;;45.10;11.62;94420.53;5054964;28;20052;-67
2021/07/29 11:02:40;;;;;;;17.88;6.53;;;;;;;45.23;11.68;94427.47;5054620;28;20044;-70
2021/07/29 11:05:38;;;;;;;14.88;5.93;;;;;;;45.32;10.41;94421.69;5053870;28;20044;-71
2021/07/29 11:08:05;;;;;;;13.35;5.78;;;;;;;45.18;10.55;94413.22;5054679;28;20363;-71
2021/07/29 11:10:33;;;;;;;12.27;5.65;;;;;;;45.27;10.83;94419.69;5054677;28;20061;-71
2021/07/29 11:13:00;;;;;;;11.73;5.78;;;;;;;45.15;9.93;94422.50;5053351;28;20044;-71
2021/07/29 11:15:27;;;;;;;17.65;6.13;;;;;;;45.31;10.14;94414.66;5054472;28;20463;-71
2021/07/29 11:17:58;;;;;;;12.65;5.25;;;;;;;45.19;9.95;94411.94;5052889;28;20044;-71
2021/07/29 11:20:28;;;;;;;12.00;5.03;;;;;;;45.23;10.75;94424.72;5053694;28;20049;-71
2021/07/29 11:22:56;;;;;;;15.88;6.10;;;;;;;45.07;11.09;94412.53;5053874;28;20045;-71
2021/07/29 11:25:23;;;;;;;13.95;5.88;;;;;;;44.94;11.14;94409.59;5054671;28;20447;-71
2021/07/29 11:27:50;;;;;;;13.55;5.35;;;;;;;45.08;10.52;94409.28;5054748;28;20048;-71
2021/07/29 11:30:17;;;;;;;10.52;4.97;;;;;;;45.20;10.80;94404.41;5054838;28;20053;-70
2021/07/29 11:32:46;;;;;;;13.25;5.93;;;;;;;44.83;11.41;94415.91;5054088;28;20328;-71
2021/07/29 11:35:15;;;;;;;14.18;6.38;;;;;;;44.84;11.10;94406.38;5054409;28;20049;-71